sensor_id;sensor_type;location;lat;lon;timestamp;pressure;altitude;pressure_sealevel;temperature;humidity
37142;BME280;23041;49.816;20.092;2022-08-27T00:00:10;97301.53;;;15.89;61.15
37142;BME280;23041;49.816;20.092;2022-08-27T00:02:41;97300.92;;;15.89;61.23
37142;BME280;23041;49.816;20.092;2022-08-27T00:05:10;97305.22;;;15.90;61.32
37142;BME280;23041;49.816;20.092;2022-08-27T00:07:38;97302.20;;;15.84;61.36
37142;BME280;23041;49.816;20.092;2022-08-27T00:10:08;97299.63;;;15.76;61.46
37142;BME280;23041;49.816;20.092;2022-08-27T00:12:36;97301.52;;;15.70;61.54
37142;BME280;23041;49.816;20.092;2022-08-27T00:15:04;97299.83;;;15.72;61.62
37142;BME280;23041;49.816;20.092;2022-08-27T00:17:32;97288.66;;;15.62;61.74
37142;BME280;23041;49.816;20.092;2022-08-27T00:19:58;97288.08;;;15.58;61.83
37142;BME280;23041;49.816;20.092;2022-08-27T00:22:25;97291.42;;;15.62;61.92
37142;BME280;23041;49.816;20.092;2022-08-27T00:24:51;97299.22;;;15.68;61.99
37142;BME280;23041;49.816;20.092;2022-08-27T00:27:18;97293.38;;;15.71;62.04
37142;BME280;23041;49.816;20.092;2022-08-27T00:29:46;97304.02;;;15.63;62.09
37142;BME280;23041;49.816;20.092;2022-08-27T00:32:12;97305.75;;;15.61;62.16
37142;BME280;23041;49.816;20.092;2022-08-27T00:34:39;97308.71;;;15.53;62.21
37142;BME280;23041;49.816;20.092;2022-08-27T00:37:05;97308.41;;;15.46;62.28
37142;BME280;23041;49.816;20.092;2022-08-27T00:39:33;97309.95;;;15.47;62.40
37142;BME280;23041;49.816;20.092;2022-08-27T00:41:59;97307.83;;;15.42;62.45
37142;BME280;23041;49.816;20.092;2022-08-27T00:44:26;97298.95;;;15.33;62.58
37142;BME280;23041;49.816;20.092;2022-08-27T00:46:56;97299.53;;;15.42;62.66
37142;BME280;23041;49.816;20.092;2022-08-27T00:49:32;97309.83;;;15.41;62.70
37142;BME280;23041;49.816;20.092;2022-08-27T00:55:06;97306.91;;;15.40;62.80
37142;BME280;23041;49.816;20.092;2022-08-27T00:57:47;97301.81;;;15.43;62.85
37142;BME280;23041;49.816;20.092;2022-08-27T01:00:17;97308.91;;;15.40;62.88
37142;BME280;23041;49.816;20.092;2022-08-27T01:02:44;97307.41;;;15.34;62.90
37142;BME280;23041;49.816;20.092;2022-08-27T01:05:17;97310.67;;;15.28;62.94
37142;BME280;23041;49.816;20.092;2022-08-27T01:07:48;97299.39;;;15.08;62.99
37142;BME280;23041;49.816;20.092;2022-08-27T01:10:17;97298.06;;;14.99;63.12
37142;BME280;23041;49.816;20.092;2022-08-27T01:12:46;97298.06;;;14.99;63.23
37142;BME280;23041;49.816;20.092;2022-08-27T01:15:15;97306.17;;;15.02;63.31
37142;BME280;23041;49.816;20.092;2022-08-27T01:17:43;97302.95;;;15.04;63.37
37142;BME280;23041;49.816;20.092;2022-08-27T01:20:17;97310.02;;;15.05;63.47
37142;BME280;23041;49.816;20.092;2022-08-27T01:25:31;97310.48;;;15.03;63.62
37142;BME280;23041;49.816;20.092;2022-08-27T01:28:00;97304.98;;;14.99;63.70
37142;BME280;23041;49.816;20.092;2022-08-27T01:30:29;97306.52;;;15.00;63.78
37142;BME280;23041;49.816;20.092;2022-08-27T01:32:56;97299.06;;;14.82;63.88
37142;BME280;23041;49.816;20.092;2022-08-27T01:35:23;97293.20;;;14.85;63.96
37142;BME280;23041;49.816;20.092;2022-08-27T01:37:52;97305.17;;;14.86;64.04
37142;BME280;23041;49.816;20.092;2022-08-27T01:40:20;97295.20;;;14.89;64.06
37142;BME280;23041;49.816;20.092;2022-08-27T01:42:49;97297.17;;;14.93;64.13
37142;BME280;23041;49.816;20.092;2022-08-27T01:47:51;97299.48;;;14.94;64.21
37142;BME280;23041;49.816;20.092;2022-08-27T01:50:23;97291.03;;;14.93;64.24
37142;BME280;23041;49.816;20.092;2022-08-27T01:52:49;97288.58;;;14.91;64.30
37142;BME280;23041;49.816;20.092;2022-08-27T01:55:19;97292.90;;;14.87;64.31
37142;BME280;23041;49.816;20.092;2022-08-27T01:57:48;97282.48;;;14.78;64.44
37142;BME280;23041;49.816;20.092;2022-08-27T02:00:22;97289.70;;;14.80;64.49
37142;BME280;23041;49.816;20.092;2022-08-27T02:02:53;97292.75;;;14.86;64.55
37142;BME280;23041;49.816;20.092;2022-08-27T02:05:21;97298.58;;;14.88;64.54
37142;BME280;23041;49.816;20.092;2022-08-27T02:07:48;97294.10;;;14.91;64.58
37142;BME280;23041;49.816;20.092;2022-08-27T02:10:19;97296.72;;;14.94;64.60
37142;BME280;23041;49.816;20.092;2022-08-27T02:12:47;97292.44;;;14.89;64.61
37142;BME280;23041;49.816;20.092;2022-08-27T02:15:14;97291.36;;;14.86;64.65
37142;BME280;23041;49.816;20.092;2022-08-27T02:17:41;97290.77;;;14.82;64.66
37142;BME280;23041;49.816;20.092;2022-08-27T02:20:09;97282.72;;;14.56;64.72
37142;BME280;23041;49.816;20.092;2022-08-27T02:22:36;97282.73;;;14.51;64.83
37142;BME280;23041;49.816;20.092;2022-08-27T02:25:04;97284.42;;;14.49;64.92
37142;BME280;23041;49.816;20.092;2022-08-27T02:27:32;97285.94;;;14.54;64.97
37142;BME280;23041;49.816;20.092;2022-08-27T02:29:59;97280.86;;;14.62;65.04
37142;BME280;23041;49.816;20.092;2022-08-27T02:32:25;97281.94;;;14.64;65.08
37142;BME280;23041;49.816;20.092;2022-08-27T02:34:54;97283.75;;;14.67;65.13
37142;BME280;23041;49.816;20.092;2022-08-27T02:37:21;97281.33;;;14.65;65.17
37142;BME280;23041;49.816;20.092;2022-08-27T02:39:47;97286.52;;;14.67;65.21
37142;BME280;23041;49.816;20.092;2022-08-27T02:42:13;97286.08;;;14.64;65.24
37142;BME280;23041;49.816;20.092;2022-08-27T02:44:40;97271.38;;;14.49;65.26
37142;BME280;23041;49.816;20.092;2022-08-27T02:47:06;97274.03;;;14.39;65.34
37142;BME280;23041;49.816;20.092;2022-08-27T02:49:33;97277.08;;;14.32;65.41
37142;BME280;23041;49.816;20.092;2022-08-27T02:51:59;97283.84;;;14.40;65.50
37142;BME280;23041;49.816;20.092;2022-08-27T02:54:25;97282.00;;;14.37;65.54
37142;BME280;23041;49.816;20.092;2022-08-27T02:56:52;97278.33;;;14.40;65.60
37142;BME280;23041;49.816;20.092;2022-08-27T02:59:20;97280.62;;;14.37;65.62
37142;BME280;23041;49.816;20.092;2022-08-27T03:01:48;97280.92;;;14.35;65.71
37142;BME280;23041;49.816;20.092;2022-08-27T03:04:16;97281.67;;;14.30;65.77
37142;BME280;23041;49.816;20.092;2022-08-27T03:06:45;97280.60;;;14.33;65.86
37142;BME280;23041;49.816;20.092;2022-08-27T03:09:11;97274.81;;;14.17;65.96
37142;BME280;23041;49.816;20.092;2022-08-27T03:11:38;97268.98;;;14.15;66.05
37142;BME280;23041;49.816;20.092;2022-08-27T03:14:04;97274.95;;;14.22;66.13
37142;BME280;23041;49.816;20.092;2022-08-27T03:16:35;97273.56;;;14.27;66.15
37142;BME280;23041;49.816;20.092;2022-08-27T03:19:03;97268.81;;;14.27;66.21
37142;BME280;23041;49.816;20.092;2022-08-27T03:21:32;97266.96;;;14.24;66.24
37142;BME280;23041;49.816;20.092;2022-08-27T03:23:59;97268.20;;;14.28;66.33
37142;BME280;23041;49.816;20.092;2022-08-27T03:26:28;97269.25;;;14.30;66.35
37142;BME280;23041;49.816;20.092;2022-08-27T03:28:54;97271.24;;;14.30;66.40
37142;BME280;23041;49.816;20.092;2022-08-27T03:31:22;97264.53;;;14.22;66.42
37142;BME280;23041;49.816;20.092;2022-08-27T03:33:56;97269.92;;;14.12;66.49
37142;BME280;23041;49.816;20.092;2022-08-27T03:36:26;97267.16;;;14.12;66.55
37142;BME280;23041;49.816;20.092;2022-08-27T03:38:54;97268.97;;;14.19;66.59
37142;BME280;23041;49.816;20.092;2022-08-27T03:41:21;97271.10;;;14.24;66.63
37142;BME280;23041;49.816;20.092;2022-08-27T03:43:48;97271.57;;;14.27;66.65
37142;BME280;23041;49.816;20.092;2022-08-27T03:46:17;97276.77;;;14.30;66.68
37142;BME280;23041;49.816;20.092;2022-08-27T03:48:45;97273.11;;;14.28;66.71
37142;BME280;23041;49.816;20.092;2022-08-27T03:51:13;97268.34;;;14.24;66.76
37142;BME280;23041;49.816;20.092;2022-08-27T03:53:42;97260.25;;;14.16;66.79
37142;BME280;23041;49.816;20.092;2022-08-27T03:56:09;97266.08;;;14.09;66.88
37142;BME280;23041;49.816;20.092;2022-08-27T03:58:36;97269.16;;;14.11;66.95
37142;BME280;23041;49.816;20.092;2022-08-27T04:01:04;97272.66;;;14.21;67.00
37142;BME280;23041;49.816;20.092;2022-08-27T04:03:31;97273.56;;;14.27;67.05
37142;BME280;23041;49.816;20.092;2022-08-27T04:05:58;97273.13;;;14.24;67.06
37142;BME280;23041;49.816;20.092;2022-08-27T04:08:25;97271.12;;;14.20;67.08
37142;BME280;23041;49.816;20.092;2022-08-27T04:10:53;97273.13;;;14.24;67.11
37142;BME280;23041;49.816;20.092;2022-08-27T04:13:21;97272.48;;;14.34;67.17
37142;BME280;23041;49.816;20.092;2022-08-27T04:15:50;97265.58;;;14.34;67.26
37142;BME280;23041;49.816;20.092;2022-08-27T04:18:17;97270.81;;;14.41;67.31
37142;BME280;23041;49.816;20.092;2022-08-27T04:20:46;97270.48;;;14.48;67.40
37142;BME280;23041;49.816;20.092;2022-08-27T04:23:14;97272.91;;;14.59;67.45
37142;BME280;23041;49.816;20.092;2022-08-27T04:25:41;97274.88;;;14.63;67.45
37142;BME280;23041;49.816;20.092;2022-08-27T04:28:10;97281.15;;;14.68;67.44
37142;BME280;23041;49.816;20.092;2022-08-27T04:30:43;97272.20;;;14.78;67.45
37142;BME280;23041;49.816;20.092;2022-08-27T04:33:12;97273.09;;;14.84;67.44
37142;BME280;23041;49.816;20.092;2022-08-27T04:35:40;97275.22;;;14.94;67.43
37142;BME280;23041;49.816;20.092;2022-08-27T04:38:06;97259.41;;;14.90;67.43
37142;BME280;23041;49.816;20.092;2022-08-27T04:40:34;97261.22;;;14.97;67.48
37142;BME280;23041;49.816;20.092;2022-08-27T04:43:20;97258.27;;;15.05;67.48
37142;BME280;23041;49.816;20.092;2022-08-27T04:45:47;97259.13;;;15.16;67.47
37142;BME280;23041;49.816;20.092;2022-08-27T04:48:16;97262.75;;;15.27;67.42
37142;BME280;23041;49.816;20.092;2022-08-27T04:50:45;97257.33;;;15.32;67.41
37142;BME280;23041;49.816;20.092;2022-08-27T04:53:14;97259.71;;;15.44;67.42
37142;BME280;23041;49.816;20.092;2022-08-27T04:55:48;97255.46;;;15.62;67.46
37142;BME280;23041;49.816;20.092;2022-08-27T04:58:12;97257.66;;;15.77;67.48
37142;BME280;23041;49.816;20.092;2022-08-27T05:00:46;97257.62;;;15.82;67.52
37142;BME280;23041;49.816;20.092;2022-08-27T05:03:16;97259.52;;;15.95;67.57
37142;BME280;23041;49.816;20.092;2022-08-27T05:05:45;97255.81;;;16.13;67.59
37142;BME280;23041;49.816;20.092;2022-08-27T05:08:15;97256.20;;;16.35;67.57
37142;BME280;23041;49.816;20.092;2022-08-27T05:10:44;97263.63;;;16.58;67.51
37142;BME280;23041;49.816;20.092;2022-08-27T05:13:13;97261.45;;;16.77;67.43
37142;BME280;23041;49.816;20.092;2022-08-27T05:15:40;97267.32;;;16.99;67.34
37142;BME280;23041;49.816;20.092;2022-08-27T05:18:07;97266.17;;;17.16;67.28
37142;BME280;23041;49.816;20.092;2022-08-27T05:20:42;97266.83;;;17.36;67.23
37142;BME280;23041;49.816;20.092;2022-08-27T05:23:11;97276.12;;;17.53;67.16
37142;BME280;23041;49.816;20.092;2022-08-27T05:25:40;97263.16;;;17.54;67.09
37142;BME280;23041;49.816;20.092;2022-08-27T05:28:08;97266.10;;;17.66;67.08
37142;BME280;23041;49.816;20.092;2022-08-27T05:30:37;97259.98;;;17.82;66.99
37142;BME280;23041;49.816;20.092;2022-08-27T05:33:06;97272.23;;;18.06;66.95
37142;BME280;23041;49.816;20.092;2022-08-27T05:35:41;97268.52;;;18.24;66.81
37142;BME280;23041;49.816;20.092;2022-08-27T05:38:08;97270.20;;;18.42;66.66
37142;BME280;23041;49.816;20.092;2022-08-27T05:40:35;97269.40;;;18.62;66.50
37142;BME280;23041;49.816;20.092;2022-08-27T05:43:03;97268.38;;;18.75;66.32
37142;BME280;23041;49.816;20.092;2022-08-27T05:45:30;97266.83;;;18.90;66.16
37142;BME280;23041;49.816;20.092;2022-08-27T05:47:56;97260.36;;;19.04;65.93
37142;BME280;23041;49.816;20.092;2022-08-27T05:50:26;97269.54;;;19.15;65.67
37142;BME280;23041;49.816;20.092;2022-08-27T05:52:52;97263.55;;;19.28;65.38
37142;BME280;23041;49.816;20.092;2022-08-27T05:55:19;97262.68;;;19.32;65.12
37142;BME280;23041;49.816;20.092;2022-08-27T05:57:45;97266.28;;;19.60;64.84
37142;BME280;23041;49.816;20.092;2022-08-27T06:00:12;97260.16;;;19.82;64.52
37142;BME280;23041;49.816;20.092;2022-08-27T06:02:57;97263.29;;;20.12;64.26
37142;BME280;23041;49.816;20.092;2022-08-27T06:05:23;97263.00;;;20.82;63.94
37142;BME280;23041;49.816;20.092;2022-08-27T06:07:50;97260.44;;;22.44;63.82
37142;BME280;23041;49.816;20.092;2022-08-27T06:10:16;97250.03;;;24.45;63.67
37142;BME280;23041;49.816;20.092;2022-08-27T06:12:43;97264.55;;;26.46;62.74
37142;BME280;23041;49.816;20.092;2022-08-27T06:27:54;97275.84;;;34.96;46.62
37142;BME280;23041;49.816;20.092;2022-08-27T06:30:21;97278.60;;;36.19;43.91
37142;BME280;23041;49.816;20.092;2022-08-27T06:32:48;97275.80;;;37.09;41.38
37142;BME280;23041;49.816;20.092;2022-08-27T06:35:17;97278.55;;;38.02;39.46
37142;BME280;23041;49.816;20.092;2022-08-27T06:37:43;97281.46;;;38.65;37.58
37142;BME280;23041;49.816;20.092;2022-08-27T06:40:12;97281.27;;;39.40;36.12
37142;BME280;23041;49.816;20.092;2022-08-27T06:42:38;97287.59;;;40.35;34.46
37142;BME280;23041;49.816;20.092;2022-08-27T06:45:06;97280.45;;;40.80;32.75
37142;BME280;23041;49.816;20.092;2022-08-27T06:47:33;97287.48;;;40.77;31.42
37142;BME280;23041;49.816;20.092;2022-08-27T06:50:00;97286.36;;;41.62;30.43
37142;BME280;23041;49.816;20.092;2022-08-27T06:52:26;97294.23;;;42.62;29.39
37142;BME280;23041;49.816;20.092;2022-08-27T06:54:53;97282.93;;;43.05;28.32
37142;BME280;23041;49.816;20.092;2022-08-27T06:57:19;97294.52;;;43.43;27.51
37142;BME280;23041;49.816;20.092;2022-08-27T06:59:47;97286.61;;;44.05;26.70
37142;BME280;23041;49.816;20.092;2022-08-27T07:02:13;97294.05;;;44.77;25.78
37142;BME280;23041;49.816;20.092;2022-08-27T07:04:40;97291.86;;;45.46;24.89
37142;BME280;23041;49.816;20.092;2022-08-27T07:07:06;97292.55;;;46.25;24.08
37142;BME280;23041;49.816;20.092;2022-08-27T07:09:34;97289.92;;;46.95;23.23
37142;BME280;23041;49.816;20.092;2022-08-27T07:12:01;97294.67;;;47.47;22.44
37142;BME280;23041;49.816;20.092;2022-08-27T07:14:28;97294.41;;;48.07;21.68
37142;BME280;23041;49.816;20.092;2022-08-27T07:16:55;97290.11;;;48.54;21.05
37142;BME280;23041;49.816;20.092;2022-08-27T07:19:22;97289.75;;;49.27;20.35
37142;BME280;23041;49.816;20.092;2022-08-27T07:21:48;97282.45;;;49.87;19.75
37142;BME280;23041;49.816;20.092;2022-08-27T07:24:16;97280.76;;;50.40;19.14
37142;BME280;23041;49.816;20.092;2022-08-27T07:26:44;97281.86;;;50.87;18.59
37142;BME280;23041;49.816;20.092;2022-08-27T07:29:13;97282.08;;;51.23;17.84
37142;BME280;23041;49.816;20.092;2022-08-27T07:31:40;97284.32;;;51.39;17.18
37142;BME280;23041;49.816;20.092;2022-08-27T07:34:07;97283.81;;;52.06;16.99
37142;BME280;23041;49.816;20.092;2022-08-27T07:36:34;97283.12;;;52.55;16.41
37142;BME280;23041;49.816;20.092;2022-08-27T07:39:01;97289.66;;;52.94;16.10
37142;BME280;23041;49.816;20.092;2022-08-27T07:41:29;97291.00;;;53.37;15.65
37142;BME280;23041;49.816;20.092;2022-08-27T07:43:56;97293.00;;;53.82;15.23
37142;BME280;23041;49.816;20.092;2022-08-27T07:46:43;97293.61;;;54.02;14.67
37142;BME280;23041;49.816;20.092;2022-08-27T07:49:10;97297.55;;;54.65;14.47
37142;BME280;23041;49.816;20.092;2022-08-27T07:51:36;97296.16;;;55.29;14.11
37142;BME280;23041;49.816;20.092;2022-08-27T07:54:03;97297.84;;;55.11;13.46
37142;BME280;23041;49.816;20.092;2022-08-27T07:56:29;97307.58;;;54.93;13.31
37142;BME280;23041;49.816;20.092;2022-08-27T07:58:56;97296.23;;;55.22;12.83
37142;BME280;23041;49.816;20.092;2022-08-27T08:01:22;97303.01;;;55.71;12.56
37142;BME280;23041;49.816;20.092;2022-08-27T08:03:49;97304.29;;;56.34;12.42
37142;BME280;23041;49.816;20.092;2022-08-27T08:06:17;97302.39;;;56.61;11.82
37142;BME280;23041;49.816;20.092;2022-08-27T08:08:44;97304.81;;;56.90;11.50
37142;BME280;23041;49.816;20.092;2022-08-27T08:11:12;97302.31;;;56.64;11.22
37142;BME280;23041;49.816;20.092;2022-08-27T08:13:40;97302.92;;;57.11;11.17
37142;BME280;23041;49.816;20.092;2022-08-27T08:16:07;97311.06;;;57.46;10.90
37142;BME280;23041;49.816;20.092;2022-08-27T08:18:34;97307.23;;;57.17;10.71
37142;BME280;23041;49.816;20.092;2022-08-27T08:21:04;97304.15;;;53.54;11.26
37142;BME280;23041;49.816;20.092;2022-08-27T08:23:32;97301.33;;;51.86;12.07
37142;BME280;23041;49.816;20.092;2022-08-27T08:26:00;97300.97;;;51.09;12.95
37142;BME280;23041;49.816;20.092;2022-08-27T08:28:27;97297.23;;;50.95;13.46
37142;BME280;23041;49.816;20.092;2022-08-27T08:30:56;97297.11;;;50.76;13.57
37142;BME280;23041;49.816;20.092;2022-08-27T08:33:23;97301.55;;;50.81;13.69
37142;BME280;23041;49.816;20.092;2022-08-27T08:35:53;97303.77;;;50.86;13.70
37142;BME280;23041;49.816;20.092;2022-08-27T08:38:19;97306.58;;;50.74;13.82
37142;BME280;23041;49.816;20.092;2022-08-27T08:40:50;97306.55;;;50.69;13.88
37142;BME280;23041;49.816;20.092;2022-08-27T08:43:37;97308.72;;;50.67;13.88
37142;BME280;23041;49.816;20.092;2022-08-27T08:46:17;97315.45;;;50.06;13.94
37142;BME280;23041;49.816;20.092;2022-08-27T08:48:48;97315.66;;;49.60;14.27
37142;BME280;23041;49.816;20.092;2022-08-27T08:51:28;97322.02;;;50.05;14.22
37142;BME280;23041;49.816;20.092;2022-08-27T08:54:13;97322.58;;;50.63;14.16
37142;BME280;23041;49.816;20.092;2022-08-27T08:57:19;97324.60;;;51.48;14.04
37142;BME280;23041;49.816;20.092;2022-08-27T08:59:32;97324.88;;;52.56;13.35
37142;BME280;23041;49.816;20.092;2022-08-27T09:02:08;97321.20;;;52.52;13.10
37142;BME280;23041;49.816;20.092;2022-08-27T09:04:35;97333.61;;;52.18;13.11
37142;BME280;23041;49.816;20.092;2022-08-27T09:07:29;97326.13;;;53.62;12.64
37142;BME280;23041;49.816;20.092;2022-08-27T09:10:36;97330.39;;;53.89;12.21
37142;BME280;23041;49.816;20.092;2022-08-27T09:13:01;97333.15;;;54.20;12.01
37142;BME280;23041;49.816;20.092;2022-08-27T09:15:32;97336.09;;;55.09;11.66
37142;BME280;23041;49.816;20.092;2022-08-27T09:18:08;97336.92;;;55.63;11.43
37142;BME280;23041;49.816;20.092;2022-08-27T09:20:36;97332.30;;;55.81;11.01
37142;BME280;23041;49.816;20.092;2022-08-27T09:23:10;97336.66;;;54.43;11.15
37142;BME280;23041;49.816;20.092;2022-08-27T09:25:51;97336.97;;;54.94;11.34
37142;BME280;23041;49.816;20.092;2022-08-27T09:28:26;97336.62;;;55.26;11.30
37142;BME280;23041;49.816;20.092;2022-08-27T09:31:18;97330.36;;;54.91;11.11
37142;BME280;23041;49.816;20.092;2022-08-27T09:33:45;97337.56;;;55.08;11.41
37142;BME280;23041;49.816;20.092;2022-08-27T09:36:14;97332.36;;;55.77;11.28
37142;BME280;23041;49.816;20.092;2022-08-27T09:38:54;97331.33;;;55.41;11.08
37142;BME280;23041;49.816;20.092;2022-08-27T09:41:36;97332.33;;;55.16;10.86
37142;BME280;23041;49.816;20.092;2022-08-27T09:44:09;97330.02;;;55.25;11.00
37142;BME280;23041;49.816;20.092;2022-08-27T09:46:37;97325.44;;;55.42;10.88
37142;BME280;23041;49.816;20.092;2022-08-27T09:49:12;97332.52;;;55.65;10.79
37142;BME280;23041;49.816;20.092;2022-08-27T09:51:41;97331.55;;;55.82;10.73
37142;BME280;23041;49.816;20.092;2022-08-27T09:54:11;97327.21;;;56.28;10.65
37142;BME280;23041;49.816;20.092;2022-08-27T09:56:50;97320.11;;;56.56;10.40
37142;BME280;23041;49.816;20.092;2022-08-27T09:59:22;97326.27;;;57.95;10.23
37142;BME280;23041;49.816;20.092;2022-08-27T10:02:02;97320.10;;;58.06;9.58
37142;BME280;23041;49.816;20.092;2022-08-27T10:04:38;97328.06;;;58.45;9.36
37142;BME280;23041;49.816;20.092;2022-08-27T10:07:20;97321.59;;;58.68;9.05
37142;BME280;23041;49.816;20.092;2022-08-27T10:10:34;97328.23;;;59.49;9.01
37142;BME280;23041;49.816;20.092;2022-08-27T10:12:48;97318.86;;;59.66;8.52
37142;BME280;23041;49.816;20.092;2022-08-27T10:16:22;97324.92;;;60.10;8.38
37142;BME280;23041;49.816;20.092;2022-08-27T10:18:18;97329.70;;;61.71;8.01
37142;BME280;23041;49.816;20.092;2022-08-27T10:20:57;97334.54;;;62.18;7.64
37142;BME280;23041;49.816;20.092;2022-08-27T10:23:54;97328.97;;;61.70;7.51
37142;BME280;23041;49.816;20.092;2022-08-27T10:26:46;97327.65;;;61.06;7.63
37142;BME280;23041;49.816;20.092;2022-08-27T10:35:18;97325.55;;;62.20;7.06
37142;BME280;23041;49.816;20.092;2022-08-27T10:37:58;97330.98;;;62.32;6.86
37142;BME280;23041;49.816;20.092;2022-08-27T10:49:36;97320.80;;;62.80;6.27
37142;BME280;23041;49.816;20.092;2022-08-27T11:01:21;97317.52;;;62.87;6.12
37142;BME280;23041;49.816;20.092;2022-08-27T11:03:55;97310.53;;;61.86;6.27
37142;BME280;23041;49.816;20.092;2022-08-27T11:09:25;97305.58;;;61.41;6.62
37142;BME280;23041;49.816;20.092;2022-08-27T11:12:09;97311.45;;;62.01;6.66
37142;BME280;23041;49.816;20.092;2022-08-27T11:14:49;97317.37;;;62.56;6.42
37142;BME280;23041;49.816;20.092;2022-08-27T11:17:46;97320.31;;;62.39;6.29
37142;BME280;23041;49.816;20.092;2022-08-27T11:20:21;97316.66;;;60.37;6.61
37142;BME280;23041;49.816;20.092;2022-08-27T11:23:04;97317.94;;;59.96;6.97
37142;BME280;23041;49.816;20.092;2022-08-27T11:25:47;97316.01;;;60.12;6.68
37142;BME280;23041;49.816;20.092;2022-08-27T11:28:41;97319.59;;;59.91;6.80
37142;BME280;23041;49.816;20.092;2022-08-27T11:40:05;97301.93;;;57.25;8.54
37142;BME280;23041;49.816;20.092;2022-08-27T11:42:52;97297.50;;;57.61;8.15
37142;BME280;23041;49.816;20.092;2022-08-27T11:45:35;97299.01;;;55.92;8.55
37142;BME280;23041;49.816;20.092;2022-08-27T11:48:23;97296.10;;;55.36;9.05
37142;BME280;23041;49.816;20.092;2022-08-27T11:51:01;97293.69;;;53.92;9.44
37142;BME280;23041;49.816;20.092;2022-08-27T11:53:38;97293.33;;;52.96;10.08
37142;BME280;23041;49.816;20.092;2022-08-27T11:58:43;97286.93;;;54.99;9.82
37142;BME280;23041;49.816;20.092;2022-08-27T12:01:27;97280.55;;;55.98;9.54
37142;BME280;23041;49.816;20.092;2022-08-27T12:04:17;97280.59;;;55.96;9.13
37142;BME280;23041;49.816;20.092;2022-08-27T12:21:15;97271.39;;;52.40;10.21
37142;BME280;23041;49.816;20.092;2022-08-27T12:27:13;97267.05;;;48.24;12.14
37142;BME280;23041;49.816;20.092;2022-08-27T12:29:40;97270.54;;;47.06;13.20
37142;BME280;23041;49.816;20.092;2022-08-27T12:32:28;97265.48;;;45.89;13.46
37142;BME280;23041;49.816;20.092;2022-08-27T12:40:50;97268.61;;;43.46;15.41
37142;BME280;23041;49.816;20.092;2022-08-27T12:43:25;97274.44;;;42.71;15.92
37142;BME280;23041;49.816;20.092;2022-08-27T12:46:07;97270.69;;;42.16;16.60
37142;BME280;23041;49.816;20.092;2022-08-27T12:48:57;97265.61;;;41.48;17.36
37142;BME280;23041;49.816;20.092;2022-08-27T12:51:29;97266.98;;;40.85;17.54
37142;BME280;23041;49.816;20.092;2022-08-27T12:54:32;97263.87;;;40.64;17.88
37142;BME280;23041;49.816;20.092;2022-08-27T13:05:25;97261.36;;;39.30;20.04
37142;BME280;23041;49.816;20.092;2022-08-27T13:07:52;97268.90;;;39.24;20.32
37142;BME280;23041;49.816;20.092;2022-08-27T13:10:29;97264.27;;;39.17;20.36
37142;BME280;23041;49.816;20.092;2022-08-27T13:13:05;97262.03;;;39.16;20.62
37142;BME280;23041;49.816;20.092;2022-08-27T13:15:42;97260.69;;;39.04;20.71
37142;BME280;23041;49.816;20.092;2022-08-27T13:18:10;97255.91;;;38.83;20.93
37142;BME280;23041;49.816;20.092;2022-08-27T13:20:38;97253.33;;;38.75;21.39
37142;BME280;23041;49.816;20.092;2022-08-27T13:23:13;97247.89;;;38.67;21.84
37142;BME280;23041;49.816;20.092;2022-08-27T13:26:03;97254.34;;;38.67;21.99
37142;BME280;23041;49.816;20.092;2022-08-27T13:28:32;97248.20;;;38.60;21.92
37142;BME280;23041;49.816;20.092;2022-08-27T13:31:00;97247.75;;;38.52;22.07
37142;BME280;23041;49.816;20.092;2022-08-27T13:33:28;97242.33;;;38.32;22.02
37142;BME280;23041;49.816;20.092;2022-08-27T13:35:57;97240.55;;;38.26;22.28
37142;BME280;23041;49.816;20.092;2022-08-27T13:38:28;97236.03;;;38.22;22.55
37142;BME280;23041;49.816;20.092;2022-08-27T13:41:04;97232.35;;;38.08;22.38
37142;BME280;23041;49.816;20.092;2022-08-27T13:43:37;97231.86;;;37.87;22.36
37142;BME280;23041;49.816;20.092;2022-08-27T13:46:07;97236.06;;;37.74;22.38
37142;BME280;23041;49.816;20.092;2022-08-27T13:48:40;97237.70;;;37.29;22.33
37142;BME280;23041;49.816;20.092;2022-08-27T13:51:08;97241.11;;;37.15;22.44
37142;BME280;23041;49.816;20.092;2022-08-27T13:53:36;97240.41;;;37.04;22.59
37142;BME280;23041;49.816;20.092;2022-08-27T13:56:29;97236.66;;;36.90;22.83
37142;BME280;23041;49.816;20.092;2022-08-27T13:59:21;97236.30;;;36.61;22.64
37142;BME280;23041;49.816;20.092;2022-08-27T14:05:30;97231.42;;;36.40;22.79
37142;BME280;23041;49.816;20.092;2022-08-27T14:07:41;97233.89;;;36.34;23.29
37142;BME280;23041;49.816;20.092;2022-08-27T14:12:58;97230.53;;;36.16;23.88
37142;BME280;23041;49.816;20.092;2022-08-27T14:15:40;97231.11;;;36.25;24.09
37142;BME280;23041;49.816;20.092;2022-08-27T14:18:29;97234.51;;;36.12;24.20
37142;BME280;23041;49.816;20.092;2022-08-27T14:20:58;97237.50;;;36.14;24.38
37142;BME280;23041;49.816;20.092;2022-08-27T14:23:25;97235.47;;;36.15;24.51
37142;BME280;23041;49.816;20.092;2022-08-27T14:25:55;97237.25;;;36.10;24.76
37142;BME280;23041;49.816;20.092;2022-08-27T14:28:22;97239.08;;;36.05;25.13
37142;BME280;23041;49.816;20.092;2022-08-27T14:30:49;97232.83;;;36.18;25.17
37142;BME280;23041;49.816;20.092;2022-08-27T14:33:16;97232.25;;;36.31;25.35
37142;BME280;23041;49.816;20.092;2022-08-27T14:35:43;97237.61;;;36.37;24.95
37142;BME280;23041;49.816;20.092;2022-08-27T14:38:13;97235.78;;;36.31;24.75
37142;BME280;23041;49.816;20.092;2022-08-27T14:40:45;97236.67;;;36.33;24.82
37142;BME280;23041;49.816;20.092;2022-08-27T14:43:12;97242.47;;;36.24;24.58
37142;BME280;23041;49.816;20.092;2022-08-27T14:45:40;97243.61;;;36.30;24.31
37142;BME280;23041;49.816;20.092;2022-08-27T14:48:17;97241.11;;;36.25;24.00